• Join FlightAware (Why Join?)
  • Login
  • US Flag 
Trick or treat! (Boo!!) 
01:19PM EDT


 

Airport Tracker/Info


-or-


 

Live Flight TrackerFlight Track Log ✈ N717AN ✈ 20-Apr-2013 ✈ KJFK - EGLL / LHR

Flight Track Log - Related Links

Times and Time Zones

All times are in EDT time to prevent confusion due to time zone crossing. See the N717AN flight status page for this flight to view local times or setup timezone preferences in your user account.

Time Position Orientation Groundspeed Altitude Reporting Facility
EDT Latitude Longitude Course Direction KTS MPH feet Rate Location/Type
06:57PM 40.6120 -73.7930 210° Southwest 174 200 1,200  Level FlightAware
06:57PM 40.5890 -73.8030 198° South 207 238 1,700 960 Climbing FlightAware
06:57PM 40.5620 -73.7840 152° Southeast 266 306 2,100 1,320 Climbing FlightAware
06:58PM 40.5540 -73.7630 117° Southeast 273 314 2,600 1,920 Climbing FlightAware
06:58PM 40.5520 -73.7480 100° East 283 326 2,900 2,160 Climbing FlightAware
06:58PM 40.5600 -73.7150 72° East 279 321 3,700 2,700 Climbing FlightAware
06:58PM 40.5740 -73.6950 47° Northeast 271 312 4,500 2,820 Climbing FlightAware
06:59PM 40.5970 -73.6700 40° Northeast 270 311 5,600 2,820 Climbing FlightAware
06:59PM 40.6285 -73.6346 40° Northeast 272 313 7,100 2,700 Climbing FlightAware ADS-B
06:59PM 40.6352 -73.6285 35° Northeast 274 315 7,300 2,040 Climbing FlightAware ADS-B
07:00PM 40.6920 -73.6030 19° North 283 326 9,000 1,920 Climbing FlightAware
07:01PM 40.7430 -73.5840 16° North 306 352 10,200 1,260 Climbing FlightAware
07:02PM 40.8080 -73.5610 15° North 359 413 10,800 1,080 Climbing FlightAware
07:02PM 40.8770 -73.5360 15° North 397 457 11,800 2,160 Climbing FlightAware
07:03PM 40.9609 -73.5055 15° North 416 479 13,800 2,640 Climbing FlightAware ADS-B
07:04PM 41.0245 -73.4823 15° North 436 502 15,200 2,580 Climbing FlightAware ADS-B
07:05PM 41.1335 -73.4421 16° North 457 526 17,600 2,580 Climbing FlightAware ADS-B
07:05PM 41.2043 -73.4161 15° North 466 536 19,000 2,340 Climbing FlightAware ADS-B
07:06PM 41.2857 -73.3862 15° North 481 554 20,500 2,100 Climbing FlightAware ADS-B
07:06PM 41.3610 -73.3580 16° North 493 567 21,700 1,860 Climbing FlightAware
07:07PM 41.4265 -73.3346 15° North 506 582 22,500 1,620 Climbing FlightAware ADS-B
07:07PM 41.4726 -73.3213 12° North 512 589 23,000 1,860 Climbing FlightAware ADS-B
07:08PM 41.5707 -73.3058 North 513 590 24,400 1,740 Climbing FlightAware ADS-B
07:08PM 41.6442 -73.3030 North 514 592 25,100 1,740 Climbing FlightAware ADS-B
07:09PM 41.7189 -73.3007 North 528 608 26,200 1,860 Climbing FlightAware ADS-B
07:09PM 41.7933 -73.2981 North 531 611 27,000 600 Climbing FlightAware ADS-B
07:11PM 41.9850 -73.2920 North 542 624 27,400 600 Climbing FlightAware
07:12PM 42.1200 -73.2880 North 544 626 28,400 600 Climbing FlightAware
07:12PM 42.2050 -73.2860 North 544 626 28,400  Level FlightAware
07:13PM 42.3120 -73.2830 North 544 626 28,400  Level FlightAware
07:14PM 42.3980 -73.2810 North 544 626 28,400 480 Level FlightAware
07:14PM 42.5410 -73.2060 21° North 589 678 29,000 420 Climbing FlightAware
07:15PM 42.6410 -73.1010 38° Northeast 596 686 29,000  Level FlightAware
07:16PM 42.7410 -72.9880 40° Northeast 594 684 29,000  Level FlightAware
07:17PM 42.8300 -72.8880 39° Northeast 595 685 29,000  Level FlightAware
07:17PM 42.9130 -72.7950 39° Northeast 595 685 29,000  Level FlightAware
07:18PM 43.0000 -72.6990 39° Northeast 594 684 29,000  Level FlightAware
07:19PM 43.0990 -72.5880 39° Northeast 599 689 29,000  Level FlightAware
07:19PM 43.1840 -72.4930 39° Northeast 599 689 29,000  Level FlightAware
07:20PM 43.2790 -72.3870 39° Northeast 601 692 29,000  Level FlightAware
07:21PM 43.3640 -72.2910 39° Northeast 599 689 29,000  Level FlightAware
07:22PM 43.4640 -72.1780 39° Northeast 603 694 29,000  Level FlightAware
07:22PM 43.5490 -72.0810 40° Northeast 607 699 29,000  Level FlightAware
07:23PM 43.6450 -71.9720 39° Northeast 616 709 29,000  Level FlightAware
07:24PM 43.7330 -71.8710 40° Northeast 622 716 29,000  Level FlightAware
07:24PM 43.8220 -71.7690 40° Northeast 612 704 29,000  Level FlightAware
07:25PM 43.9230 -71.6520 40° Northeast 613 705 29,000  Level FlightAware
07:26PM 44.0070 -71.5540 40° Northeast 607 699 29,000  Level FlightAware
07:26PM 44.0950 -71.4520 40° Northeast 621 715 29,000  Level FlightAware
07:27PM 44.1920 -71.3390 40° Northeast 611 703 29,000  Level FlightAware
07:28PM 44.2760 -71.2390 40° Northeast 610 702 29,000  Level FlightAware
07:29PM 44.3750 -71.1230 40° Northeast 605 696 29,000  Level FlightAware
07:29PM 44.4750 -71.0050 40° Northeast 606 697 29,000  Level FlightAware
07:30PM 44.5740 -70.8860 41° Northeast 610 702 29,000  Level FlightAware
07:31PM 44.6550 -70.7910 40° Northeast 609 701 29,000  Level FlightAware
07:33PM 44.8980 -70.4960 41° Northeast 614 707 29,000  Level FlightAware
07:34PM 45.0450 -70.3180 41° Northeast 609 701 29,000  Level FlightAware
07:34PM 45.1131 -70.2342 41° Northeast 607 699 29,000  Level Boston Center
07:35PM 45.2433 -70.0789 40° Northeast 607 699 29,000  Level Boston Center
07:36PM 45.3714 -69.9169 42° Northeast 612 704 29,000  Level Boston Center
07:37PM 45.4989 -69.7606 41° Northeast 612 704 29,000  Level Boston Center
07:38PM 45.6144 -69.6186 41° Northeast 612 704 29,000  Level Boston Center
07:39PM 45.7000 -69.5000 44° Northeast 610 702 29,000  Level Moncton Center
07:40PM 45.8167 -69.3500 42° Northeast 600 690 29,000 -120 Level Moncton Center
07:40PM 45.8806 -69.2772 38° Northeast 612 704 28,900  Descending Boston Center
07:46PM 46.5990 -68.3470 38° Northeast 626 720 29,000  Climbing FlightAware
07:47PM 46.7600 -68.1330 42° Northeast 630 725 29,000  Level FlightAware
07:48PM 46.8860 -67.9660 42° Northeast 627 722 29,000  Level FlightAware
07:49PM 46.9660 -67.8590 42° Northeast 628 723 29,000  Level FlightAware
07:50PM 47.0400 -67.7620 42° Northeast 628 723 29,000  Level FlightAware
07:50PM 47.1130 -67.6650 42° Northeast 628 723 29,000  Level FlightAware
07:51PM 47.1870 -67.5670 42° Northeast 628 723 29,000  Level FlightAware
07:52PM 47.2780 -67.4460 42° Northeast 628 723 29,000  Level FlightAware
07:52PM 47.3330 -67.3730 42° Northeast 628 723 29,000  Level FlightAware
07:53PM 47.5167 -67.1167 42° Northeast 630 725 29,000  Level Gander Center
07:54PM 47.6500 -66.9333 43° Northeast 630 725 29,000  Level Gander Center
07:55PM 47.7833 -66.7833 37° Northeast 620 713 29,000 480 Level Gander Center
07:56PM 47.9167 -66.6167 40° Northeast 640 736 30,000 1,200 Climbing Gander Center
07:57PM 48.0667 -66.4333 39° Northeast 650 748 31,400 1,380 Climbing Gander Center
07:58PM 48.1833 -66.2667 44° Northeast 670 771 32,800 780 Climbing Gander Center
07:59PM 48.3500 -66.0833 36° Northeast 670 771 33,000 60 Climbing Gander Center
08:00PM 48.4667 -65.9000 46° Northeast 670 771 33,000  Level Gander Center
08:01PM 48.6333 -65.7167 36° Northeast 680 783 33,000  Level Gander Center
08:02PM 48.7667 -65.5167 45° Northeast 670 771 33,000  Level Gander Center
08:03PM 48.9167 -65.3333 39° Northeast 670 771 33,000  Level Gander Center
08:04PM 49.0500 -65.1667 39° Northeast 670 771 33,000  Level Gander Center
08:05PM 49.1667 -64.9667 48° Northeast 670 771 33,000  Level Gander Center
08:06PM 49.3333 -64.7667 38° Northeast 670 771 33,000  Level Gander Center
08:07PM 49.4500 -64.6000 43° Northeast 670 771 33,000  Level Gander Center
08:08PM 49.6167 -64.4000 38° Northeast 670 771 33,000  Level Gander Center
08:09PM 49.7333 -64.2000 48° Northeast 670 771 33,000  Level Gander Center
08:10PM 49.8833 -64.0000 41° Northeast 670 771 33,000  Level Gander Center
08:11PM 50.0000 -63.8333 43° Northeast 670 771 33,000  Level Gander Center
08:12PM 50.1667 -63.6333 38° Northeast 670 771 33,000  Level Gander Center
08:13PM 50.3000 -63.4333 44° Northeast 670 771 33,000  Level Gander Center
08:14PM 50.4333 -63.2167 46° Northeast 670 771 33,000  Level Gander Center
08:15PM 50.5667 -63.0167 44° Northeast 670 771 33,000  Level Gander Center
08:16PM 50.7167 -62.8167 40° Northeast 660 760 33,000  Level Gander Center
08:17PM 50.8500 -62.6333 41° Northeast 660 760 33,000  Level Gander Center
08:18PM 50.9667 -62.4500 45° Northeast 660 760 33,000  Level Gander Center
08:19PM 51.1000 -62.2333 46° Northeast 660 760 33,000  Level Gander Center
08:20PM 51.2333 -62.0333 43° Northeast 660 760 33,000  Level Gander Center
08:21PM 51.3667 -61.8167 45° Northeast 660 760 33,000  Level Gander Center
08:22PM 51.5000 -61.6333 41° Northeast 660 760 33,000  Level Gander Center
08:23PM 51.6333 -61.4167 45° Northeast 660 760 33,000  Level Gander Center
08:24PM 51.7667 -61.2000 45° Northeast 660 760 33,000  Level Gander Center
08:25PM 51.8833 -61.0167 44° Northeast 660 760 33,000  Level Gander Center
08:26PM 52.0167 -60.7667 49° Northeast 660 760 33,000  Level Gander Center
08:27PM 52.1333 -60.5667 46° Northeast 660 760 33,000  Level Gander Center
08:28PM 52.2667 -60.3333 47° Northeast 660 760 33,000  Level Gander Center
08:29PM 52.3833 -60.1333 46° Northeast 660 760 33,000  Level Gander Center
08:30PM 52.5167 -59.9000 47° Northeast 650 748 33,000 -300 Level Gander Center
08:31PM 52.6333 -59.6833 48° Northeast 650 748 32,500 -540 Descending Gander Center
08:32PM 52.7667 -59.4500 47° Northeast 650 748 32,000 -300 Descending Gander Center
08:33PM 52.8833 -59.2333 48° Northeast 650 748 32,000  Level Gander Center
08:34PM 53.0000 -59.0000 50° Northeast 650 748 32,000  Level Gander Center
08:35PM 53.1167 -58.7667 50° Northeast 650 748 32,000  Level Gander Center
08:36PM 53.2500 -58.5500 44° Northeast 650 748 32,000  Level Gander Center
08:37PM 53.3667 -58.3333 48° Northeast 650 748 32,000  Level Gander Center
08:38PM 53.4833 -58.1000 50° Northeast 650 748 32,000  Level Gander Center
08:39PM 53.6000 -57.8667 50° Northeast 650 748 32,000  Level Gander Center
08:40PM 53.7333 -57.6333 46° Northeast 650 748 32,000  Level Gander Center
08:41PM 53.8333 -57.4000 54° Northeast 650 748 32,000  Level Gander Center
08:42PM 53.9500 -57.1833 47° Northeast 650 748 32,000  Level Gander Center
08:43PM 54.0667 -56.9500 50° Northeast 640 736 32,000  Level Gander Center
08:44PM 54.1833 -56.7167 49° Northeast 640 736 32,000  Level Gander Center
08:45PM 54.3000 -56.4667 51° Northeast 640 736 32,000  Level Gander Center
08:46PM 54.4167 -56.2500 47° Northeast 640 736 32,000  Level Gander Center
08:47PM 54.5167 -56.0167 53° Northeast 640 736 32,000  Level Gander Center
08:48PM 54.6333 -55.7667 51° Northeast 640 736 32,000  Level Gander Center
08:49PM 54.7000 -55.5000 67° East 630 725 32,000  Level Gander Center
08:50PM 54.7833 -55.2000 64° Northeast 630 725 32,000  Level Gander Center
08:51PM 54.8500 -54.9500 65° Northeast 630 725 32,000  Level Gander Center
08:52PM 54.9167 -54.6500 69° East 630 725 32,000  Level Gander Center
08:53PM 55.0000 -54.3667 63° Northeast 630 725 32,000  Level Gander Center
08:54PM 55.0500 -54.1000 72° East 630 725 32,000  Level Gander Center
08:55PM 55.1333 -53.8167 63° Northeast 630 725 32,000  Level Gander Center
08:56PM 55.1833 -53.5500 72° East 630 725 32,000  Level Gander Center
08:58PM 55.3333 -52.9833 65° Northeast 620 713 32,000  Level Gander Center
08:59PM 55.4000 -52.7167 66° East 620 713 32,000  Level Gander Center
09:00PM 55.4500 -52.4333 73° East 620 713 32,000  Level Gander Center
09:01PM 55.5167 -52.1500 67° East 610 702 32,000  Level Gander Center
09:02PM 55.5833 -51.8667 67° East 610 702 32,000  Level Gander Center
09:03PM 55.6333 -51.5833 73° East 610 702 32,000  Level Gander Center
09:04PM 55.7000 -51.3000 67° East 610 702 32,000  Level Gander Center
09:05PM 55.7500 -51.0167 72° East 610 702 32,000  Level Gander Center
09:06PM 55.8000 -50.8000 68° East 610 702 32,000  Level Gander Center
09:08PM 55.8825 -50.4735 66° East  Level FlightAware Approximate
09:14PM 56.0000 -50.0000 76° East 593 682 32,000  Level ETMS Enhanced Traffic Management System
09:15PM 56.1855 -48.6433 76° East  Level FlightAware Approximate
09:16PM 56.2201 -48.3760 77° East  Level FlightAware Approximate
09:17PM 56.2541 -48.1082 77° East  Level FlightAware Approximate
09:18PM 56.2875 -47.8400 77° East  Level FlightAware Approximate
09:18PM 56.3333 -47.2667 79° East 600 690 32,000  Level Gander Center
09:19PM 56.3204 -47.5713 77° East  Level FlightAware Approximate
09:19PM 56.3667 -46.9833 78° East 600 690 32,000  Level Gander Center
09:20PM 56.4110 -46.8250 78° East 593 682 32,000  Level FlightAware Transoceanic
09:20PM 56.4000 -46.7000 78° East 600 690 32,000  Level Gander Center
09:21PM 56.4443 -46.5330 78° East 593 682 32,000  Level FlightAware Transoceanic
09:21PM 56.4333 -46.4000 79° East 600 690 32,000  Level Gander Center
09:22PM 56.4769 -46.2406 79° East 593 682 32,000  Level FlightAware Transoceanic
09:22PM 56.4667 -46.1167 78° East 600 690 32,000  Level Gander Center
09:23PM 56.5088 -45.9477 79° East 593 682 32,000  Level FlightAware Transoceanic
09:23PM 56.5000 -45.8000 79° East 600 690 32,000  Level Gander Center
09:24PM 56.5333 -45.5000 78° East 600 690 32,000  Level Gander Center
09:25PM 56.5667 -45.2167 78° East 600 690 32,000  Level Gander Center
09:26PM 56.6000 -44.9333 78° East 600 690 32,000  Level Gander Center
09:27PM 56.6333 -44.6333 78° East 600 690 32,000  Level Gander Center
09:28PM 56.6500 -44.3500 84° East 600 690 32,000  Level Gander Center
09:29PM 56.6833 -44.0167 80° East 600 690 32,000  Level Gander Center
09:30PM 56.7000 -43.7333 84° East 600 690 32,000  Level Gander Center
09:31PM 56.7333 -43.4333 78° East 600 690 32,000  Level Gander Center
09:32PM 56.7667 -43.1500 78° East 600 690 32,000  Level Gander Center
09:33PM 56.7833 -42.8167 85° East 600 690 32,000  Level Gander Center
09:34PM 56.8000 -42.5333 84° East 600 690 32,000  Level Gander Center
09:35PM 56.8333 -42.2333 78° East 600 690 32,000  Level Gander Center
09:36PM 56.8500 -41.9333 84° East 600 690 32,000  Level Gander Center
09:37PM 56.8833 -41.6500 78° East 600 690 32,000  Level Gander Center
09:38PM 56.9000 -41.3167 85° East 600 690 32,000  Level Gander Center
09:39PM 56.9167 -41.0167 84° East 600 690 32,000  Level Gander Center
09:40PM 56.9333 -40.7333 84° East 600 690 32,000  Level Gander Center
09:41PM 56.9500 -40.4333 84° East 600 690 32,000  Level Gander Center
09:42PM 56.9833 -40.1333 78° East 600 690 32,000  Level Gander Center
09:43PM 56.9833 -39.8167 90° East 600 690 32,000  Level Gander Center
09:44PM 57.0167 -39.5167 78° East 600 690 32,000  Level Gander Center
09:45PM 57.0167 -39.2333 90° East 600 690 32,000  Level Gander Center
09:46PM 57.0167 -38.9000 90° East 600 690 32,000  Level Gander Center
09:47PM 57.0333 -38.6000 84° East 600 690 32,000  Level Gander Center
09:48PM 57.0333 -38.3167 90° East 600 690 32,000  Level Gander Center
09:49PM 57.0500 -38.0000 84° East 600 690 32,000  Level Gander Center
09:50PM 57.0500 -37.7333 90° East 600 690 32,000  Level Gander Center
09:52PM 57.0593 -37.3255 87° East  Level FlightAware Approximate
09:59PM 57.0854 -35.3542 88° East  Level FlightAware Approximate
10:00PM 57.0866 -35.0725 89° East  Level FlightAware Approximate
10:01PM 57.0872 -34.7907 90° East  Level FlightAware Approximate
10:02PM 57.0871 -34.5089 90° East  Level FlightAware Approximate
10:02PM 57.0000 -40.0000 86° East 593 682 32,000  Level ETMS Enhanced Traffic Management System
10:03PM 57.0864 -34.2271 90° East  Level FlightAware Approximate
10:04PM 57.0851 -33.9453 90° East  Level FlightAware Approximate
10:05PM 57.0831 -33.6636 91° East  Level FlightAware Approximate
10:06PM 57.0805 -33.3819 91° East  Level FlightAware Approximate
10:07PM 57.0773 -33.1002 91° East  Level FlightAware Approximate
10:08PM 57.0732 -32.4208 92° East 593 682 32,000  Level FlightAware Transoceanic
10:09PM 57.0666 -32.1178 92° East 593 682 32,000  Level FlightAware Transoceanic
10:10PM 57.0593 -31.8148 93° East 593 682 32,000  Level FlightAware Transoceanic
10:11PM 57.0512 -31.5119 93° East 593 682 32,000  Level FlightAware Transoceanic
10:12PM 57.0424 -31.2092 93° East 593 682 32,000  Level FlightAware Transoceanic
10:13PM 57.0329 -30.9067 93° East 593 682 32,000  Level FlightAware Transoceanic
10:14PM 57.0227 -30.6043 94° East 593 682 32,000  Level FlightAware Transoceanic
10:15PM 57.0117 -30.3020 94° East 593 682 32,000  Level FlightAware Transoceanic
10:16PM 57.0013 -30.0337 94° East  Level FlightAware Approximate
10:17PM 56.9904 -29.7654 94° East  Level FlightAware Approximate
10:18PM 56.9872 -29.7885 96° East  Level FlightAware Approximate
10:19PM 56.9698 -29.5102 96° East  Level FlightAware Approximate
10:20PM 56.9519 -29.2322 97° East  Level FlightAware Approximate
10:21PM 56.9332 -28.9544 97° East  Level FlightAware Approximate
10:22PM 56.9140 -28.6769 97° East  Level FlightAware Approximate
10:23PM 56.8942 -28.3997 97° East  Level FlightAware Approximate
10:24PM 56.8737 -28.1228 98° East  Level FlightAware Approximate
10:25PM 56.8527 -27.8462 98° East  Level FlightAware Approximate
10:26PM 56.8310 -27.5699 98° East  Level FlightAware Approximate
10:27PM 56.8087 -27.2939 98° East  Level FlightAware Approximate
10:28PM 56.7858 -27.0183 99° East  Level FlightAware Approximate
10:29PM 56.7623 -26.7430 99° East  Level FlightAware Approximate
10:30PM 56.7382 -26.4681 99° East  Level FlightAware Approximate
10:31PM 56.7135 -26.1935 99° East  Level FlightAware Approximate
10:32PM 56.6882 -25.9193 99° East  Level FlightAware Approximate
10:33PM 56.6623 -25.6454 100° East  Level FlightAware Approximate
10:34PM 56.6357 -25.3720 100° East  Level FlightAware Approximate
10:35PM 56.6086 -25.0989 100° East  Level FlightAware Approximate
10:36PM 56.5809 -24.8262 100° East  Level FlightAware Approximate
10:37PM 56.5526 -24.5539 101° East  Level FlightAware Approximate
10:38PM 56.5237 -24.2821 101° East  Level FlightAware Approximate
10:39PM 56.4950 -24.0103 101° East  Level FlightAware Approximate
10:40PM 56.4660 -23.7390 101° East  Level FlightAware Approximate
10:41PM 56.4364 -23.4680 101° East  Level FlightAware Approximate
10:42PM 56.4061 -23.1974 101° East  Level FlightAware Approximate
10:43PM 56.3753 -22.9273 102° East  Level FlightAware Approximate
10:44PM 56.3439 -22.6576 102° East  Level FlightAware Approximate
10:45PM 56.3119 -22.3884 102° East  Level FlightAware Approximate
10:46PM 56.2794 -22.1196 102° East  Level FlightAware Approximate
10:47PM 56.2462 -21.8513 102° East  Level FlightAware Approximate
10:48PM 56.2125 -21.5834 103° East  Level FlightAware Approximate
10:49PM 56.1782 -21.3160 103° East  Level FlightAware Approximate
10:50PM 56.1433 -21.0492 103° East  Level FlightAware Approximate
10:51PM 56.1079 -20.7827 103° East  Level FlightAware Approximate
10:52PM 56.0718 -20.5168 104° East  Level FlightAware Approximate
10:53PM 56.0353 -20.2514 104° East  Level FlightAware Approximate
10:54PM 55.9976 -19.9868 108° East  Level FlightAware Approximate
10:55PM 55.9500 -19.7276 108° East  Level FlightAware Approximate
10:56PM 55.9019 -19.4690 108° East  Level FlightAware Approximate
10:57PM 55.8532 -19.2110 108° East  Level FlightAware Approximate
10:58PM 55.8040 -18.9537 109° East  Level FlightAware Approximate
10:59PM 55.7543 -18.6971 109° East  Level FlightAware Approximate
11:00PM 55.7040 -18.4411 109° East  Level FlightAware Approximate
11:01PM 55.6532 -18.1858 109° East  Level FlightAware Approximate
11:02PM 55.6019 -17.9311 110° East  Level FlightAware Approximate
11:03PM 55.5500 -17.6771 110° East  Level FlightAware Approximate
11:04PM 55.4977 -17.4238 110° East  Level FlightAware Approximate
11:05PM 55.4448 -17.1712 110° East  Level FlightAware Approximate
11:06PM 55.3913 -16.9192 110° East  Level FlightAware Approximate
11:07PM 55.3374 -16.6679 111° Southeast  Level FlightAware Approximate
11:08PM 55.2829 -16.4173 111° Southeast  Level FlightAware Approximate
11:09PM 55.2280 -16.1674 111° Southeast  Level FlightAware Approximate
11:10PM 55.1725 -15.9182 111° Southeast  Level FlightAware Approximate
11:11PM 55.1165 -15.6697 111° Southeast  Level FlightAware Approximate
11:12PM 55.0597 -15.4204 112° Southeast  Level FlightAware Approximate
11:13PM 55.0024 -15.1718 112° Southeast  Level FlightAware Approximate
11:14PM 54.9445 -14.9240 112° Southeast  Level FlightAware Approximate
11:15PM 54.8862 -14.6768 112° Southeast  Level FlightAware Approximate
11:16PM 54.8274 -14.4304 112° Southeast  Level FlightAware Approximate
11:16PM 54.6260 -13.5000 113° Southeast 543 625 32,000  Level FlightAware
11:17PM 54.7681 -14.1847 113° Southeast  Level FlightAware Approximate
11:17PM 54.5790 -13.3210 114° Southeast 539 620 32,000  Level FlightAware
11:17PM 54.5390 -13.1660 114° Southeast 542 624 32,000 540 Level FlightAware
11:18PM 54.4920 -12.9890 115° Southeast 535 616 32,800 660 Climbing FlightAware
11:19PM 54.4510 -12.8370 115° Southeast 526 605 33,000 120 Climbing FlightAware
11:19PM 54.4100 -12.6830 115° Southeast 527 606 33,000  Level FlightAware
11:20PM 54.3650 -12.5130 114° Southeast 525 604 33,000  Level FlightAware
11:21PM 54.3240 -12.3610 115° Southeast 531 611 33,000  Level FlightAware
11:21PM 54.2810 -12.2060 115° Southeast 531 611 33,000  Level FlightAware
11:23PM 54.1970 -11.9010 115° Southeast 524 603 33,000  Level FlightAware
11:24PM 54.1250 -11.6410 115° Southeast 524 603 33,000  Level FlightAware
11:25PM 54.0670 -11.4340 115° Southeast 522 601 33,000  Level FlightAware
11:26PM 54.0190 -11.2670 116° Southeast 523 602 33,000  Level FlightAware
11:26PM 53.9780 -11.1210 115° Southeast 521 600 33,000  Level FlightAware
11:27PM 53.9290 -10.9540 116° Southeast 519 597 33,000  Level FlightAware
11:28PM 53.8880 -10.8110 116° Southeast 517 595 33,000  Level FlightAware
11:29PM 53.8410 -10.6500 116° Southeast 514 592 33,000  Level FlightAware
11:29PM 53.7990 -10.5050 116° Southeast 513 590 33,000  Level FlightAware
11:30PM 53.7560 -10.3620 117° Southeast 512 589 33,000  Level FlightAware
11:31PM 53.7080 -10.2000 117° Southeast 510 587 33,000  Level FlightAware
11:31PM 53.6670 -10.0610 116° Southeast 510 587 33,000  Level FlightAware
11:32PM 53.6190 -9.9010 117° Southeast 509 586 33,000  Level FlightAware
11:33PM 53.5760 -9.7600 117° Southeast 505 581 33,000  Level FlightAware
11:33PM 53.5350 -9.6260 117° Southeast 502 578 33,000  Level FlightAware
11:34PM 53.4860 -9.4660 117° Southeast 500 575 33,000  Level FlightAware
11:35PM 53.4440 -9.3290 117° Southeast 499 574 33,000  Level FlightAware
11:35PM 53.4010 -9.1920 118° Southeast 496 571 33,000  Level FlightAware
11:36PM 53.3540 -9.0400 117° Southeast 496 571 33,000 -1,440 Level FlightAware
11:37PM 53.3292 -8.9615 117° Southeast 464 534 31,500  Descending FlightAware UK
11:37PM 53.3120 -8.9060 118° Southeast 492 566 33,000 -300 Climbing FlightAware
11:37PM 53.3039 -8.8808 118° Southeast 466 536 31,400 -4,800 Descending FlightAware UK
11:37PM 53.2849 -8.8205 118° Southeast 462 532 31,400  Level FlightAware UK
11:38PM 53.2659 -8.7602 118° Southeast 466 536 31,400 3,840 Level FlightAware UK
11:38PM 53.2640 -8.7540 118° Southeast 489 563 33,000 240 Climbing FlightAware
11:38PM 53.2406 -8.6802 118° Southeast 462 532 31,500  Descending FlightAware UK
11:38PM 53.2220 -8.6200 118° Southeast 488 562 33,000 -300 Climbing FlightAware
11:38PM 53.2153 -8.6004 118° Southeast 466 536 31,400 -5,100 Descending FlightAware UK
11:39PM 53.1959 -8.5402 118° Southeast 466 536 31,400 120 Level FlightAware UK
11:39PM 53.1769 -8.4808 118° Southeast 466 536 31,500 3,660 Climbing FlightAware UK
11:39PM 53.1740 -8.4700 118° Southeast 481 554 33,000 -300 Climbing FlightAware
11:39PM 53.1516 -8.4020 118° Southeast 468 539 31,400 -2,880 Descending FlightAware UK
11:40PM 53.1329 -8.3439 118° Southeast 462 532 31,400 3,960 Level FlightAware UK
11:40PM 53.1320 -8.3400 118° Southeast 474 545 33,000 240 Climbing FlightAware
11:40PM 53.1087 -8.2688 118° Southeast 460 529 31,500 -2,520 Descending FlightAware UK
11:40PM 53.0900 -8.2109 118° Southeast 458 527 31,500 4,080 Level FlightAware UK
11:40PM 53.0910 -8.2140 118° Southeast 472 543 33,000  Climbing FlightAware
11:41PM 53.0652 -8.1348 118° Southeast 462 532 31,500 -2,580 Descending FlightAware UK
11:41PM 53.0462 -8.0766 118° Southeast 460 529 31,400 3,600 Descending FlightAware UK
11:41PM 53.0460 -8.0750 118° Southeast 470 541 33,000 240 Climbing FlightAware
11:41PM 53.0219 -8.0017 118° Southeast 458 527 31,500 -2,580 Descending FlightAware UK
11:42PM 53.0032 -7.9441 118° Southeast 456 525 31,500 3,900 Level FlightAware UK
11:42PM 53.0030 -7.9450 118° Southeast 467 537 33,000  Climbing FlightAware
11:42PM 52.9786 -7.8693 118° Southeast 456 525 31,500 -2,460 Descending FlightAware UK
11:42PM 52.9598 -7.8124 119° Southeast 454 522 31,500 4,260 Level FlightAware UK
11:42PM 52.9630 -7.8210 119° Southeast 469 540 33,000  Climbing FlightAware
11:43PM 52.9412 -7.7557 119° Southeast 452 520 31,500 -2,760 Descending FlightAware UK
11:43PM 52.9225 -7.6991 119° Southeast 454 522 31,500 3,000 Level FlightAware UK
11:43PM 52.9150 -7.6750 119° Southeast 472 543 33,000  Climbing FlightAware
11:44PM 52.8909 -7.6035 119° Southeast 462 532 31,500 -2,520 Descending FlightAware UK
11:44PM 52.8720 -7.5466 119° Southeast 460 529 31,500 4,080 Level FlightAware UK
11:44PM 52.8740 -7.5510 119° Southeast 471 542 33,000  Climbing FlightAware
11:44PM 52.8405 -7.4519 119° Southeast 460 529 31,500 -2,100 Descending FlightAware UK
11:45PM 52.8219 -7.3961 119° Southeast 456 525 31,500 4,680 Level FlightAware UK
11:45PM 52.8270 -7.4110 119° Southeast 465 535 33,000  Climbing FlightAware
11:45PM 52.8031 -7.3400 119° Southeast 456 525 31,500 -2,580 Descending FlightAware UK
11:45PM 52.7843 -7.2835 119° Southeast 452 520 31,500 4,980 Level FlightAware UK
11:45PM 52.7900 -7.3000 119° Southeast 466 536 33,000  Climbing FlightAware
11:46PM 52.7656 -7.2277 119° Southeast 454 522 31,500 -2,520 Descending FlightAware UK
11:46PM 52.7466 -7.1721 119° Southeast 456 525 31,500 3,300 Level FlightAware UK
11:46PM 52.7440 -7.1630 119° Southeast 468 539 33,000  Climbing FlightAware
11:46PM 52.7147 -7.0786 119° Southeast 456 525 31,500 -2,340 Descending FlightAware UK
11:47PM 52.6959 -7.0231 119° Southeast 446 513 31,500 3,720 Level FlightAware UK
11:47PM 52.6970 -7.0260 119° Southeast 452 520 33,000  Climbing FlightAware
11:47PM 52.6718 -6.9515 119° Southeast 442 509 31,500  Descending FlightAware UK
11:47PM 52.6620 -6.9220 119° Southeast 456 525 33,000  Climbing FlightAware
11:47PM 52.6535 -6.8978 119° Southeast 442 509 31,500 -4,740 Descending FlightAware UK
11:48PM 52.6347 -6.8432 119° Southeast 448 516 31,500 -180 Level FlightAware UK
11:48PM 52.6161 -6.7887 119° Southeast 448 516 31,400 2,880 Descending FlightAware UK
11:48PM 52.6070 -6.7610 119° Southeast 456 525 33,000 180 Climbing FlightAware
11:48PM 52.5850 -6.6980 119° Southeast 446 513 31,500 -2,760 Descending FlightAware UK
11:49PM 52.5661 -6.6432 120° Southeast 446 513 31,400 3,900 Descending FlightAware UK
11:49PM 52.5640 -6.6380 120° Southeast 457 526 33,000  Climbing FlightAware
11:49PM 52.5411 -6.5710 120° Southeast 444 511 31,400 -2,460 Descending FlightAware UK
11:49PM 52.5224 -6.5167 120° Southeast 446 513 31,500 3,660 Climbing FlightAware UK
11:50PM 52.5180 -6.5050 120° Southeast 457 526 33,000  Climbing FlightAware
11:50PM 52.4973 -6.4445 120° Southeast 448 516 31,500 -2,760 Descending FlightAware UK
11:50PM 52.4781 -6.3892 120° Southeast 444 511 31,400 3,720 Descending FlightAware UK
11:50PM 52.4770 -6.3870 120° Southeast 458 527 33,000  Climbing FlightAware
11:51PM 52.4532 -6.3175 120° Southeast 444 511 31,400  Descending FlightAware UK
11:51PM 52.4400 -6.2710 115° Southeast 465 535 33,000 300 Climbing FlightAware
11:51PM 52.4371 -6.2597 115° Southeast 446 513 31,500 -4,500 Descending FlightAware UK
11:51PM 52.4222 -6.1999 115° Southeast 444 511 31,500  Level FlightAware UK
11:51PM 52.4099 -6.1395 109° East 446 513 31,500 3,600 Level FlightAware UK
11:52PM 52.4060 -6.1210 109° East 475 547 33,000  Climbing FlightAware
11:52PM 52.3938 -6.0574 109° East 446 513 31,500 -2,580 Descending FlightAware UK
11:52PM 52.3817 -5.9958 108° East 448 516 31,500 3,900 Level FlightAware UK
11:52PM 52.3790 -5.9820 108° East 475 547 33,000 -300 Climbing FlightAware
11:53PM 52.3653 -5.9133 108° East 448 516 31,400 -2,460 Descending FlightAware UK
11:53PM 52.3531 -5.8520 108° East 448 516 31,500  Climbing FlightAware UK
11:53PM 52.3410 -5.7907 108° East 446 513 31,400 3,900 Descending FlightAware UK
11:53PM 52.3390 -5.7810 108° East 473 544 33,000  Climbing FlightAware
11:54PM 52.3248 -5.7100 108° East 450 518 31,400  Descending FlightAware UK
11:54PM 52.3080 -5.6260 108° East 471 542 33,000  Climbing FlightAware
11:54PM 52.2957 -5.5674 108° East 448 516 31,400 -2,880 Descending FlightAware UK
11:55PM 52.2835 -5.5069 108° East 446 513 31,400 3,960 Level FlightAware UK
11:55PM 52.2850 -5.5140 108° East 468 539 33,000  Climbing FlightAware
11:55PM 52.2670 -5.4260 108° East 444 511 31,400  Descending FlightAware UK
11:55PM 52.2510 -5.3480 108° East 469 540 33,000 2,280 Climbing FlightAware
11:56PM 52.2374 -5.2864 110° East 468 539 33,000 -2,760 Level FlightAware ADS-B
11:56PM 52.2191 -5.2325 110° East 446 513 31,500 -2,520 Descending FlightAware UK
11:56PM 52.1949 -5.1853 130° Southeast 444 511 31,500 1,860 Level FlightAware UK
11:57PM 52.1520 -5.1360 146° Southeast 432 497 33,000  Climbing FlightAware
11:57PM 52.1454 -5.1299 146° Southeast 440 506 31,500 -4,740 Descending FlightAware UK
11:57PM 52.1118 -5.1099 146° Southeast 438 504 31,500  Level FlightAware UK
11:57PM 52.0787 -5.0901 160° South 440 506 31,500 3,420 Level FlightAware UK
11:57PM 52.0690 -5.0840 160° South 427 491 33,000  Climbing FlightAware
11:58PM 52.0341 -5.0645 160° South 440 506 31,500 -2,700 Descending FlightAware UK
11:58PM 52.0001 -5.0450 161° South 440 506 31,500 3,720 Level FlightAware UK
11:58PM 51.9960 -5.0430 161° South 427 491 33,000 -300 Climbing FlightAware
11:58PM 51.9548 -5.0235 161° South 438 504 31,400 -2,700 Descending FlightAware UK
11:59PM 51.9202 -5.0181 174° South 438 504 31,400 4,320 Level FlightAware UK
11:59PM 51.9180 -5.0180 174° South 417 480 33,000 180 Climbing FlightAware
11:59PM 51.8629 -5.0207 174° South 440 506 31,500  Descending FlightAware UK
11:59PM 51.8450 -5.0210 181° South 418 481 33,000  Climbing FlightAware
12:00AM 51.8281 -5.0221 181° South 440 506 31,500 -6,000 Descending FlightAware UK
12:00AM 51.8045 -5.0230 181° South 440 506 31,400 -240 Descending FlightAware UK
12:00AM 51.7701 -5.0243 181° South 440 506 31,400 3,300 Level FlightAware UK
12:00AM 51.7560 -5.0250 181° South 419 482 33,000 180 Climbing FlightAware
12:01AM 51.7117 -5.0265 181° South 440 506 31,500 -2,460 Descending FlightAware UK
12:01AM 51.6769 -5.0280 181° South 440 506 31,500  Level FlightAware UK
12:01AM 51.6420 -5.0294 181° South 440 506 31,500 3,900 Level FlightAware UK
12:01AM 51.6510 -5.0290 181° South 421 484 33,000  Climbing FlightAware
12:02AM 51.5953 -5.0314 181° South 440 506 31,500 -2,460 Descending FlightAware UK
12:02AM 51.5603 -5.0330 182° South 440 506 31,500 4,260 Level FlightAware UK
12:02AM 51.5650 -5.0330 182° South 415 478 33,000  Climbing FlightAware
12:02AM 51.5255 -5.0345 182° South 440 506 31,500 -2,760 Descending FlightAware UK
12:02AM 51.4900 -5.0361 182° South 442 509 31,500 4,500 Level FlightAware UK
12:02AM 51.4990 -5.0360 182° South 416 479 33,000  Climbing FlightAware
12:03AM 51.4551 -5.0377 182° South 440 506 31,500 -2,700 Descending FlightAware UK
12:03AM 51.4193 -5.0393 182° South 442 509 31,500 2,700 Level FlightAware UK
12:03AM 51.3902 -5.0408 182° South 425 489 33,000  Climbing FlightAware ADS-B
12:04AM 51.3608 -5.0420 182° South 442 509 31,500  Descending FlightAware UK
12:04AM 51.3270 -5.0440 182° South 417 480 33,000  Climbing FlightAware
12:04AM 51.3133 -5.0444 182° South 442 509 31,500 -3,360 Descending FlightAware UK
12:04AM 51.2663 -5.0469 182° South 440 506 31,500 -300 Level FlightAware UK
12:05AM 51.2313 -5.0488 182° South 440 506 31,300 3,600 Descending FlightAware UK
12:05AM 51.2300 -5.0490 182° South 416 479 32,900 -1,440 Climbing FlightAware
12:05AM 51.1724 -5.0517 182° South 444 511 30,600 -1,380 Descending FlightAware UK
12:05AM 51.1510 -5.0530 181° South 418 481 32,000 -360 Climbing FlightAware
12:05AM 51.1366 -5.0531 181° South 446 513 30,500 -6,000 Descending FlightAware UK
12:06AM 51.1134 -5.0543 181° South 446 513 30,500  Level FlightAware UK
12:06AM 51.0776 -5.0559 182° South 446 513 30,500 3,600 Level FlightAware UK
12:06AM 51.0720 -5.0560 182° South 418 481 32,000  Climbing FlightAware
12:06AM 51.0304 -5.0581 182° South 444 511 30,500 -2,580 Descending FlightAware UK
12:07AM 50.9947 -5.0595 181° South 442 509 30,500 3,180 Level FlightAware UK
12:07AM 50.9810 -5.0600 181° South 422 486 32,000  Climbing FlightAware
12:07AM 50.9370 -5.0619 181° South 442 509 30,500 -2,400 Descending FlightAware UK
12:07AM 50.9016 -5.0633 181° South 440 506 30,500 4,500 Level FlightAware UK
12:07AM 50.9010 -5.0630 181° South 421 484 32,000  Climbing FlightAware
12:08AM 50.8663 -5.0645 181° South 444 511 30,500 -2,700 Descending FlightAware UK
12:08AM 50.8312 -5.0657 181° South 444 511 30,500 3,720 Level FlightAware UK
12:08AM 50.8260 -5.0660 181° South 422 486 32,000 -300 Climbing FlightAware
12:08AM 50.7850 -5.0672 181° South 442 509 30,400 -2,700 Descending FlightAware UK
12:09AM 50.7502 -5.0586 171° South 442 509 30,400 3,540 Level FlightAware UK
12:09AM 50.7370 -5.0520 171° South 435 501 32,000  Climbing FlightAware
12:09AM 50.7052 -5.0296 171° South 442 509 30,400 -2,760 Descending FlightAware UK
12:09AM 50.6749 -4.9953 144° Southeast 442 509 30,500 3,840 Climbing FlightAware UK
12:10AM 50.6660 -4.9850 144° Southeast 452 520 32,000  Climbing FlightAware
12:10AM 50.6358 -4.9457 144° Southeast 444 511 30,500 -2,580 Descending FlightAware UK
12:10AM 50.6065 -4.9089 141° Southeast 444 511 30,500 3,180 Level FlightAware UK
12:10AM 50.5930 -4.8920 141° Southeast 450 518 32,000  Climbing FlightAware
12:11AM 50.5580 -4.8482 141° Southeast 446 513 30,500  Descending FlightAware UK
12:11AM 50.5280 -4.8110 141° Southeast 447 514 32,000  Climbing FlightAware
12:11AM 50.5192 -4.7990 141° Southeast 440 506 30,500 -5,640 Descending FlightAware UK
12:11AM 50.4999 -4.7746 141° Southeast 440 506 30,500  Level FlightAware UK
12:12AM 50.4710 -4.7379 141° Southeast 440 506 30,500 3,060 Level FlightAware UK
12:12AM 50.4570 -4.7200 141° Southeast 442 509 32,000  Climbing FlightAware
12:12AM 50.4238 -4.6780 141° Southeast 438 504 30,500 -2,460 Descending FlightAware UK
12:12AM 50.3973 -4.6384 136° Southeast 436 502 30,500 4,260 Level FlightAware UK
12:12AM 50.3960 -4.6360 136° Southeast 447 514 32,000  Climbing FlightAware
12:13AM 50.3755 -4.5909 136° Southeast 436 502 30,500 -2,760 Descending FlightAware UK
12:13AM 50.3595 -4.5364 115° Southeast 440 506 30,500 3,600 Level FlightAware UK
12:13AM 50.3550 -4.5210 115° Southeast 460 529 32,000  Climbing FlightAware
12:13AM 50.3396 -4.4624 115° Southeast 440 506 30,500 -2,220 Descending FlightAware UK
12:14AM 50.3204 -4.3896 112° Southeast 440 506 30,500 3,180 Level FlightAware UK
12:14AM 50.3190 -4.3840 112° Southeast 457 526 32,000  Climbing FlightAware
12:14AM 50.3004 -4.3162 112° Southeast 440 506 30,500 -2,400 Descending FlightAware UK
12:14AM 50.2856 -4.2626 113° Southeast 436 502 30,500 4,500 Level FlightAware UK
12:14AM 50.2860 -4.2640 113° Southeast 453 521 32,000  Climbing FlightAware
12:15AM 50.2704 -4.2076 113° Southeast 434 499 30,500 -2,580 Descending FlightAware UK
12:15AM 50.2612 -4.1509 104° East 434 499 30,500 2,760 Level FlightAware UK
12:15AM 50.2590 -4.1240 104° East 458 527 31,800 -1,680 Climbing FlightAware
12:16AM 50.2628 -4.0313 104° East 436 502 29,500 -3,480 Descending FlightAware UK
12:16AM 50.2709 -3.9515 81° East 442 509 28,900 1,020 Descending FlightAware UK
12:16AM 50.2740 -3.9200 81° East 469 540 30,200 -1,380 Climbing FlightAware
12:16AM 50.2773 -3.8912 81° East 446 513 28,500 -8,040 Descending FlightAware UK
12:17AM 50.2816 -3.8510 81° East 446 513 28,200 -1,200 Descending FlightAware UK
12:17AM 50.2946 -3.7924 71° East 444 511 27,900 -1,200 Descending FlightAware UK
12:17AM 50.3089 -3.7356 69° East 442 509 27,500 2,220 Descending FlightAware UK
12:17AM 50.3140 -3.7210 69° East 472 543 28,900 -1,800 Climbing FlightAware
12:18AM 50.3329 -3.6633 69° East 444 511 26,800 -4,740 Descending FlightAware UK
12:18AM 50.3530 -3.6099 59° Northeast 448 516 26,300 -1,680 Descending FlightAware UK
12:18AM 50.3725 -3.5557 60° Northeast 450 518 25,800 840 Descending FlightAware UK
12:19AM 50.3970 -3.4900 60° Northeast 479 551 27,000 -840 Climbing FlightAware
12:19AM 50.4056 -3.4655 60° Northeast 452 520 25,400 -5,100 Descending FlightAware UK
12:19AM 50.4256 -3.4116 60° Northeast 450 518 25,400  Level FlightAware UK
12:19AM 50.4455 -3.3576 60° Northeast 450 518 25,400  Level FlightAware UK
12:20AM 50.4656 -3.3030 60° Northeast 450 518 25,400  Level FlightAware UK
12:20AM 50.4851 -3.2496 60° Northeast 452 520 25,400  Level FlightAware UK
12:20AM 50.5049 -3.1956 60° Northeast 450 518 25,400 3,540 Level FlightAware UK
12:20AM 50.5090 -3.1850 60° Northeast 476 548 27,000  Climbing FlightAware
12:21AM 50.5314 -3.1233 60° Northeast 450 518 25,400  Descending FlightAware UK
12:21AM 50.5438 -3.0894 60° Northeast 475 547 27,000  Climbing FlightAware ADS-B
12:21AM 50.5639 -3.0344 60° Northeast 448 516 25,400 -2,700 Descending FlightAware UK
12:21AM 50.5797 -2.9784 66° East 450 518 25,400 4,320 Level FlightAware UK
12:21AM 50.5827 -2.9646 66° East 474 545 27,000  Climbing FlightAware ADS-B
12:22AM 50.5940 -2.8985 66° East 450 518 25,400  Descending FlightAware UK
12:22AM 50.5977 -2.8422 66° East 473 544 27,000  Climbing FlightAware ADS-B
12:22AM 50.6011 -2.7763 66° East 452 520 25,400  Descending FlightAware UK
12:23AM 50.6031 -2.7396 66° East 470 541 27,000 180 Climbing FlightAware ADS-B
12:23AM 50.6065 -2.6737 66° East 448 516 25,500  Descending FlightAware UK
12:23AM 50.6094 -2.6104 66° East 470 541 27,000  Climbing FlightAware ADS-B
12:24AM 50.6133 -2.5307 66° East 450 518 25,500  Descending FlightAware UK
12:24AM 50.6142 -2.5078 66° East 469 540 27,000  Climbing FlightAware ADS-B
12:24AM 50.6172 -2.4485 66° East 450 518 25,500  Descending FlightAware UK
12:24AM 50.6190 -2.4056 66° East 469 540 27,000 1,860 Climbing FlightAware ADS-B
12:25AM 50.6238 -2.3004 86° East 468 539 26,900 -3,000 Descending FlightAware ADS-B
12:25AM 50.6273 -2.2235 86° East 452 520 24,400 -2,520 Descending FlightAware UK
12:25AM 50.6279 -2.2198 86° East 468 539 25,900 6,600 Climbing FlightAware ADS-B
12:25AM 50.6308 -2.1913 81° East 469 540 25,500 -2,220 Descending FlightAware ADS-B
12:25AM 50.6382 -2.1439 76° East 462 532 25,100 -1,080 Descending FlightAware ADS-B
12:26AM 50.6472 -2.1030 71° East 450 518 25,000 -3,600 Descending FlightAware ADS-B
12:26AM 50.6613 -2.0541 71° East 422 486 23,300 -840 Descending FlightAware UK
12:26AM 50.6740 -2.0156 71° East 429 494 24,600 -1,200 Climbing FlightAware ADS-B
12:26AM 50.6885 -1.9705 71° East 406 467 22,700 -1,800 Descending FlightAware UK
12:27AM 50.7009 -1.9324 71° East 421 484 23,700 -2,040 Climbing FlightAware ADS-B
12:27AM 50.7152 -1.8889 71° East 404 465 21,700 -1,800 Descending FlightAware UK
12:27AM 50.7278 -1.8500 71° East 414 476 22,800 -1,800 Climbing FlightAware ADS-B
12:27AM 50.7414 -1.8080 71° East 400 460 20,800 -1,800 Descending FlightAware UK
12:28AM 50.7539 -1.7700 71° East 410 472 21,900 -1,800 Climbing FlightAware ADS-B
12:28AM 50.7674 -1.7292 71° East 398 458 19,900 -1,740 Descending FlightAware UK
12:28AM 50.7817 -1.6865 71° East 402 463 21,000 -1,680 Climbing FlightAware ADS-B
12:29AM 50.7985 -1.6355 71° East 392 451 18,900 -1,800 Descending FlightAware UK
12:29AM 50.8072 -1.6084 71° East 396 456 20,100 -2,040 Climbing FlightAware ADS-B
12:29AM 50.8282 -1.5439 71° East 390 449 17,700 -2,040 Descending FlightAware UK
12:29AM 50.8320 -1.5314 71° East 392 451 19,100 -1,800 Climbing FlightAware ADS-B
12:30AM 50.8529 -1.4670 71° East 382 440 16,800 -1,800 Descending FlightAware UK
12:30AM 50.8569 -1.4548 71° East 389 448 18,200 -1,800 Climbing FlightAware ADS-B
12:30AM 50.8727 -1.4066 71° East 380 437 16,100 -1,800 Descending FlightAware UK
12:30AM 50.8817 -1.3792 71° East 381 438 17,300 -1,560 Climbing FlightAware ADS-B
12:31AM 50.8971 -1.3329 71° East 374 430 15,300 -1,620 Descending FlightAware UK
12:31AM 50.9061 -1.3055 71° East 376 433 16,500 -1,500 Climbing FlightAware ADS-B
12:31AM 50.9256 -1.2452 71° East 362 417 14,400 -1,380 Descending FlightAware UK
12:31AM 50.9297 -1.2320 71° East 364 419 15,800 -840 Climbing FlightAware ADS-B
12:32AM 50.9524 -1.1619 71° East 342 394 13,900 -840 Descending FlightAware UK
12:32AM 50.9523 -1.1625 71° East 348 400 15,400 -720 Climbing FlightAware ADS-B
12:32AM 50.9654 -1.1219 71° East 330 380 13,700 -840 Descending FlightAware UK
12:32AM 50.9737 -1.0963 71° East 332 382 15,000 1,140 Climbing FlightAware ADS-B
12:33AM 50.9943 -1.0321 63° Northeast 324 373 14,500 -2,760 Descending FlightAware ADS-B
12:33AM 51.0067 -0.9939 63° Northeast 306 352 12,800 -840 Descending FlightAware UK
12:33AM 51.0145 -0.9698 63° Northeast 309 356 14,100 -1,020 Climbing FlightAware ADS-B
12:34AM 51.0259 -0.9342 63° Northeast 302 348 12,300 -1,200 Descending FlightAware UK
12:34AM 51.0339 -0.9092 63° Northeast 304 350 13,500 -1,440 Climbing FlightAware ADS-B
12:34AM 51.0450 -0.8745 63° Northeast 298 343 11,600 -1,440 Descending FlightAware UK
12:34AM 51.0530 -0.8496 63° Northeast 304 350 12,800 -1,200 Climbing FlightAware ADS-B
12:35AM 51.0642 -0.8150 63° Northeast 296 341 11,000 -1,200 Descending FlightAware UK
12:35AM 51.0722 -0.7896 63° Northeast 299 344 12,200 -1,380 Climbing FlightAware ADS-B
12:35AM 51.0866 -0.7444 63° Northeast 292 336 10,200 -1,200 Descending FlightAware UK
12:35AM 51.0910 -0.7304 63° Northeast 296 341 11,600 -1,500 Climbing FlightAware ADS-B
12:36AM 51.1012 -0.6980 63° Northeast 290 334 9,600 -1,380 Descending FlightAware UK
12:36AM 51.1098 -0.6713 63° Northeast 296 341 10,900 -1,200 Climbing FlightAware ADS-B
12:36AM 51.1198 -0.6396 63° Northeast 288 331 9,000 -1,200 Descending FlightAware UK
12:36AM 51.1284 -0.6129 63° Northeast 292 336 10,300 2,040 Climbing FlightAware ADS-B
12:37AM 51.1376 -0.5838 63° Northeast 289 333 10,000 -1,200 Descending FlightAware ADS-B
12:37AM 51.1467 -0.5548 63° Northeast 288 331 9,700 -1,200 Descending FlightAware ADS-B
12:37AM 51.1560 -0.5254 63° Northeast 284 327 9,400 -780 Descending FlightAware ADS-B
12:37AM 51.1651 -0.4965 63° Northeast 277 319 9,300 -600 Descending FlightAware ADS-B
12:38AM 51.1739 -0.4684 63° Northeast 271 312 9,100 -600 Descending FlightAware ADS-B
12:38AM 51.1826 -0.4411 63° Northeast 268 308 9,000 -240 Descending FlightAware ADS-B
12:38AM 51.1912 -0.4141 63° Northeast 265 305 9,000  Level FlightAware ADS-B
12:38AM 51.1996 -0.3870 64° Northeast 268 308 9,000  Level FlightAware ADS-B
12:39AM 51.2083 -0.3593 63° Northeast 268 308 9,000  Level FlightAware ADS-B
12:39AM 51.2170 -0.3313 64° Northeast 267 307 9,000  Level FlightAware ADS-B
12:39AM 51.2255 -0.3043 63° Northeast 268 308 9,000  Level FlightAware ADS-B
12:39AM 51.2338 -0.2776 64° Northeast 269 310 9,000  Level FlightAware ADS-B
12:40AM 51.2422 -0.2506 64° Northeast 269 310 9,000  Level FlightAware ADS-B
12:40AM 51.2515 -0.2211 63° Northeast 269 310 9,000  Level FlightAware ADS-B
12:40AM 51.2599 -0.1940 64° Northeast 268 308 9,000  Level FlightAware ADS-B
12:40AM 51.2684 -0.1666 64° Northeast 267 307 9,000  Level FlightAware ADS-B
12:41AM 51.2766 -0.1404 63° Northeast 267 307 9,000  Level FlightAware ADS-B
12:41AM 51.2850 -0.1133 64° Northeast 267 307 9,000  Level FlightAware ADS-B
12:41AM 51.2933 -0.0866 64° Northeast 267 307 9,000  Level FlightAware ADS-B
12:41AM 51.3018 -0.0592 64° Northeast 267 307 9,000  Level FlightAware ADS-B
12:42AM 51.3103 -0.0319 63° Northeast 267 307 9,000 -3,000 Level FlightAware ADS-B
12:42AM 51.3185 -0.0058 63° Northeast 262 302 7,500  Descending FlightAware UK
12:42AM 51.3186 -0.0049 63° Northeast 267 307 9,000 6,420 Climbing FlightAware ADS-B
12:42AM 51.3260 0.0193 64° Northeast 267 307 9,000  Level FlightAware ADS-B
12:42AM 51.3301 0.0338 66° East 267 307 9,000  Level FlightAware ADS-B
12:43AM 51.3369 0.0616 69° East 267 307 9,000  Level FlightAware ADS-B
12:43AM 51.3432 0.0882 69° East 268 308 9,000  Level FlightAware ADS-B
12:43AM 51.3504 0.1168 68° East 267 307 9,000  Level FlightAware ADS-B
12:43AM 51.3569 0.1440 69° East 267 307 9,000  Level FlightAware ADS-B
12:43AM 51.3582 0.1517 75° East 269 310 9,000  Level FlightAware ADS-B
12:43AM 51.3589 0.1617 84° East 269 310 9,000  Level FlightAware ADS-B
12:44AM 51.3586 0.1680 94° East 268 308 9,000  Level FlightAware ADS-B
12:44AM 51.3579 0.1740 101° East 267 307 9,000  Level FlightAware ADS-B
12:44AM 51.3568 0.1797 107° East 265 305 9,000  Level FlightAware ADS-B
12:44AM 51.3550 0.1859 115° Southeast 266 306 9,000  Level FlightAware ADS-B
12:44AM 51.3532 0.1909 120° Southeast 266 306 9,000  Level FlightAware ADS-B
12:44AM 51.3506 0.1966 126° Southeast 266 306 9,000  Level FlightAware ADS-B
12:44AM 51.3473 0.2022 133° Southeast 265 305 9,000  Level FlightAware ADS-B
12:44AM 51.3417 0.2089 143° Southeast 263 303 9,000  Level FlightAware ADS-B
12:44AM 51.3383 0.2116 153° Southeast 263 303 9,000  Level FlightAware ADS-B
12:44AM 51.3315 0.2152 162° South 261 300 9,000  Level FlightAware ADS-B
12:44AM 51.3273 0.2162 171° South 261 300 9,000  Level FlightAware ADS-B
12:44AM 51.3228 0.2164 179° South 261 300 9,000  Level FlightAware ADS-B
12:44AM 51.3167 0.2151 187° South 262 302 9,000  Level FlightAware ADS-B
12:44AM 51.3120 0.2130 196° South 262 302 9,000  Level FlightAware ADS-B
12:44AM 51.3076 0.2098 204° Southwest 263 303 9,000  Level FlightAware ADS-B
12:45AM 51.3039 0.2061 212° Southwest 262 302 9,000  Level FlightAware ADS-B
12:45AM 51.3006 0.2018 219° Southwest 263 303 9,000  Level FlightAware ADS-B
12:45AM 51.2967 0.1951 227° Southwest 263 303 9,000  Level FlightAware ADS-B
12:45AM 51.2940 0.1888 236° Southwest 263 303 9,000  Level FlightAware ADS-B
12:45AM 51.2923 0.1833 244° Southwest 263 303 9,000  Level FlightAware ADS-B
12:45AM 51.2909 0.1773 249° West 263 303 9,000  Level FlightAware ADS-B
12:45AM 51.2897 0.1693 256° West 262 302 9,000  Level FlightAware ADS-B
12:45AM 51.2893 0.1637 264° West 261 300 9,000  Level FlightAware ADS-B
12:45AM 51.2893 0.1575 270° West 261 300 9,000  Level FlightAware ADS-B
12:45AM 51.2898 0.1509 277° West 261 300 9,000  Level FlightAware ADS-B
12:45AM 51.2907 0.1445 283° West 260 299 9,000  Level FlightAware ADS-B
12:45AM 51.2927 0.1363 291° West 260 299 9,000  Level FlightAware ADS-B
12:45AM 51.2949 0.1299 298° West 260 299 9,000  Level FlightAware ADS-B
12:45AM 51.2979 0.1216 300° West 261 300 9,000  Level FlightAware ADS-B
12:45AM 51.3033 0.1074 301° West 262 302 9,000  Level FlightAware ADS-B
12:46AM 51.3135 0.0805 301° West 262 302 9,000  Level FlightAware ADS-B
12:46AM 51.3231 0.0556 302° West 262 302 9,000  Level FlightAware ADS-B
12:46AM 51.3310 0.0353 302° West 262 302 9,000  Level FlightAware ADS-B
12:46AM 51.3347 0.0270 305° West 263 303 9,000  Level FlightAware ADS-B
12:46AM 51.3388 0.0203 315° West 263 303 9,000  Level FlightAware ADS-B
12:46AM 51.3418 0.0168 323° Northwest 263 303 9,000  Level FlightAware ADS-B
12:46AM 51.3451 0.0137 330° Northwest 264 304 9,000  Level FlightAware ADS-B
12:47AM 51.3491 0.0109 336° Northwest 264 304 9,000  Level FlightAware ADS-B
12:47AM 51.3556 0.0081 345° North 265 305 9,000  Level FlightAware ADS-B
12:47AM 51.3593 0.0074 354° North 266 306 9,000  Level FlightAware ADS-B
12:47AM 51.3631 0.0073 359° North 267 307 9,000  Level FlightAware ADS-B
12:47AM 51.3681 0.0082 North 268 308 9,000  Level FlightAware ADS-B
12:47AM 51.3719 0.0096 13° North 268 308 9,000  Level FlightAware ADS-B
12:47AM 51.3766 0.0124 20° North 270 311 9,000  Level FlightAware ADS-B
12:47AM 51.3801 0.0153 28° Northeast 270 311 9,000  Level FlightAware ADS-B
12:47AM 51.3846 0.0203 35° Northeast 269 310 9,000  Level FlightAware ADS-B
12:47AM 51.3878 0.0252 44° Northeast 272 313 9,000  Level FlightAware ADS-B
12:47AM 51.3902 0.0299 51° Northeast 272 313 9,000  Level FlightAware ADS-B
12:47AM 51.3929 0.0365 57° Northeast 272 313 9,000  Level FlightAware ADS-B
12:47AM 51.3949 0.0434 65° Northeast 271 312 9,000  Level FlightAware ADS-B
12:47AM 51.3963 0.0501 71° East 270 311 9,000  Level FlightAware ADS-B
12:47AM 51.3971 0.0581 81° East 269 310 9,000  Level FlightAware ADS-B
12:47AM 51.3973 0.0658 88° East 267 307 9,000  Level FlightAware ADS-B
12:48AM 51.3969 0.0726 95° East 267 307 9,000  Level FlightAware ADS-B
12:48AM 51.3960 0.0794 102° East 266 306 9,000  Level FlightAware ADS-B
12:48AM 51.3939 0.0886 110° East 264 304 9,000  Level FlightAware ADS-B
12:48AM 51.3901 0.0993 120° Southeast 263 303 9,000  Level FlightAware ADS-B
12:48AM 51.3803 0.1252 121° Southeast 265 305 9,000  Level FlightAware ADS-B
12:48AM 51.3770 0.1337 122° Southeast 264 304 9,000  Level FlightAware ADS-B
12:48AM 51.3735 0.1409 128° Southeast 262 302 9,000  Level FlightAware ADS-B
12:48AM 51.3705 0.1459 134° Southeast 261 300 9,000  Level FlightAware ADS-B
12:48AM 51.3672 0.1502 140° Southeast 261 300 9,000  Level FlightAware ADS-B
12:48AM 51.3635 0.1540 147° Southeast 261 300 9,000  Level FlightAware ADS-B
12:48AM 51.3581 0.1580 155° Southeast 260 299 9,000  Level FlightAware ADS-B
12:49AM 51.3533 0.1603 164° South 261 300 9,000  Level FlightAware ADS-B
12:49AM 51.3494 0.1614 170° South 261 300 9,000  Level FlightAware ADS-B
12:49AM 51.3447 0.1617 177° South 261 300 9,000  Level FlightAware ADS-B
12:49AM 51.3411 0.1614 184° South 261 300 9,000  Level FlightAware ADS-B
12:49AM 51.3360 0.1600 190° South 262 302 9,000  Level FlightAware ADS-B
12:49AM 51.3324 0.1582 197° South 262 302 9,000 -1,020 Level FlightAware ADS-B
12:49AM 51.3288 0.1559 202° Southwest 264 304 8,900 -1,020 Descending FlightAware ADS-B
12:49AM 51.3257 0.1531 209° Southwest 263 303 8,900 -900 Level FlightAware ADS-B
12:49AM 51.3213 0.1482 215° Southwest 263 303 8,800 -780 Descending FlightAware ADS-B
12:49AM 51.3185 0.1441 223° Southwest 263 303 8,800 -780 Level FlightAware ADS-B
12:49AM 51.3154 0.1383 229° Southwest 261 300 8,700 -900 Descending FlightAware ADS-B
12:49AM 51.3131 0.1327 237° Southwest 262 302 8,700 -780 Level FlightAware ADS-B
12:49AM 51.3108 0.1251 244° Southwest 261 300 8,600 -780 Descending FlightAware ADS-B
12:49AM 51.3094 0.1184 252° West 259 298 8,600 -900 Level FlightAware ADS-B
12:49AM 51.3086 0.1123 258° West 257 296 8,500 -720 Descending FlightAware ADS-B
12:49AM 51.3078 0.1033 262° West 255 293 8,500 -600 Level FlightAware ADS-B
12:50AM 51.3075 0.0938 267° West 255 293 8,400 -780 Descending FlightAware ADS-B
12:50AM 51.3077 0.0869 273° West 255 293 8,400 -900 Level FlightAware ADS-B
12:50AM 51.3084 0.0793 278° West 255 293 8,300 -780 Descending FlightAware ADS-B
12:50AM 51.3094 0.0732 285° West 255 293 8,300 -900 Level FlightAware ADS-B
12:50AM 51.3108 0.0670 290° West 255 293 8,200 -900 Descending FlightAware ADS-B
12:50AM 51.3126 0.0598 292° West 256 295 8,200 -600 Level FlightAware ADS-B
12:50AM 51.3158 0.0485 294° West 255 293 8,100 -1,020 Descending FlightAware ADS-B
12:50AM 51.3184 0.0404 297° West 256 295 8,000 -720 Descending FlightAware ADS-B
12:50AM 51.3256 0.0204 300° West 257 296 7,900 -720 Descending FlightAware ADS-B
12:50AM 51.3284 0.0109 295° West 254 292 7,800 -1,380 Descending FlightAware ADS-B
12:50AM 51.3298 0.0037 287° West 252 290 7,700 -900 Descending FlightAware ADS-B
12:50AM 51.3306 -0.0023 282° West 252 290 7,700 -600 Level FlightAware ADS-B
12:51AM 51.3315 -0.0140 277° West 250 288 7,600 -720 Descending FlightAware ADS-B
12:51AM 51.3325 -0.0367 274° West 253 291 7,500 -720 Descending FlightAware ADS-B
12:51AM 51.3335 -0.0617 274° West 254 292 7,300 -840 Descending FlightAware ADS-B
12:51AM 51.3347 -0.0906 274° West 256 295 7,100 -600 Descending FlightAware ADS-B
12:52AM 51.3359 -0.1191 274° West 255 293 7,000 -240 Descending FlightAware ADS-B
12:52AM 51.3370 -0.1479 274° West 254 292 7,000  Level FlightAware ADS-B
12:52AM 51.3378 -0.1692 273° West 252 290 7,000  Level FlightAware ADS-B
12:52AM 51.3390 -0.1975 274° West 251 289 7,000  Level FlightAware ADS-B
12:52AM 51.3401 -0.2228 274° West 252 290 7,000  Level FlightAware ADS-B
12:53AM 51.3406 -0.2303 276° West 253 291 7,000  Level FlightAware ADS-B
12:53AM 51.3416 -0.2378 282° West 253 291 7,000  Level FlightAware ADS-B
12:53AM 51.3428 -0.2437 288° West 253 291 7,000  Level FlightAware ADS-B
12:53AM 51.3447 -0.2505 294° West 253 291 7,000  Level FlightAware ADS-B
12:53AM 51.3468 -0.2560 302° West 255 293 7,000  Level FlightAware ADS-B
12:53AM 51.3490 -0.2606 307° West 255 293 7,000  Level FlightAware ADS-B
12:53AM 51.3524 -0.2661 315° West 255 293 7,000  Level FlightAware ADS-B
12:53AM 51.3553 -0.2698 321° Northwest 254 292 7,000  Level FlightAware ADS-B
12:53AM 51.3598 -0.2743 328° Northwest 255 293 7,000  Level FlightAware ADS-B
12:53AM 51.3647 -0.2776 337° Northwest 257 296 7,000  Level FlightAware ADS-B
12:53AM 51.3694 -0.2797 345° North 258 297 7,000  Level FlightAware ADS-B
12:53AM 51.3737 -0.2807 352° North 258 297 7,000  Level FlightAware ADS-B
12:53AM 51.3785 -0.2808 359° North 260 299 7,000  Level FlightAware ADS-B
12:53AM 51.3826 -0.2802 North 262 302 7,000  Level FlightAware ADS-B
12:53AM 51.3877 -0.2782 13° North 262 302 7,000  Level FlightAware ADS-B
12:53AM 51.3912 -0.2761 20° North 263 303 7,000  Level FlightAware ADS-B
12:54AM 51.3945 -0.2737 25° Northeast 264 304 7,000 -1,020 Level FlightAware ADS-B
12:54AM 51.3977 -0.2706 31° Northeast 263 303 6,900 -900 Descending FlightAware ADS-B
12:54AM 51.4012 -0.2664 37° Northeast 263 303 6,900  Level FlightAware ADS-B
12:54AM 51.4046 -0.2610 45° Northeast 262 302 6,900 -780 Level FlightAware ADS-B
12:54AM 51.4075 -0.2550 52° Northeast 262 302 6,800 -900 Descending FlightAware ADS-B
12:54AM 51.4095 -0.2499 58° Northeast 261 300 6,800  Level FlightAware ADS-B
12:54AM 51.4110 -0.2446 66° East 260 299 6,800  Level FlightAware ADS-B
12:54AM 51.4125 -0.2376 71° East 259 298 6,800 -780 Level FlightAware ADS-B
12:54AM 51.4135 -0.2293 79° East 258 297 6,700 -900 Descending FlightAware ADS-B
12:54AM 51.4140 -0.2232 82° East 256 295 6,700  Level FlightAware ADS-B
12:54AM 51.4146 -0.2122 85° East 257 296 6,700 -360 Level FlightAware ADS-B
12:54AM 51.4153 -0.1898 87° East 256 295 6,600 -660 Descending FlightAware ADS-B
12:55AM 51.4164 -0.1606 87° East 255 293 6,400 -780 Descending FlightAware ADS-B
12:55AM 51.4175 -0.1324 86° East 252 290 6,200 -600 Descending FlightAware ADS-B
12:55AM 51.4186 -0.1047 86° East 249 287 6,100 -600 Descending FlightAware ADS-B
12:55AM 51.4196 -0.0775 87° East 243 280 5,900 -840 Descending FlightAware ADS-B
12:56AM 51.4205 -0.0505 87° East 237 273 5,700 -780 Descending FlightAware ADS-B
12:56AM 51.4211 -0.0353 86° East 231 266 5,600 -480 Descending FlightAware ADS-B
12:56AM 51.4219 -0.0289 79° East 228 262 5,600 -900 Level FlightAware ADS-B
12:56AM 51.4230 -0.0231 73° East 225 259 5,500 -1,020 Descending FlightAware ADS-B
12:56AM 51.4243 -0.0185 65° Northeast 222 255 5,500 -900 Level FlightAware ADS-B
12:56AM 51.4263 -0.0135 58° Northeast 221 254 5,400 -900 Descending FlightAware ADS-B
12:56AM 51.4285 -0.0091 51° Northeast 219 252 5,400 -900 Level FlightAware ADS-B
12:56AM 51.4309 -0.0055 43° Northeast 216 249 5,300 -900 Descending FlightAware ADS-B
12:56AM 51.4337 -0.0023 36° Northeast 215 247 5,300 -900 Level FlightAware ADS-B
12:56AM 51.4375 0.0009 28° Northeast 214 246 5,200 -780 Descending FlightAware ADS-B
12:56AM 51.4408 0.0027 19° North 213 245 5,200 -780 Level FlightAware ADS-B
12:56AM 51.4449 0.0039 10° North 213 245 5,100 -720 Descending FlightAware ADS-B
12:56AM 51.4491 0.0038 360° North 211 243 5,100 -780 Level FlightAware ADS-B
12:56AM 51.4522 0.0030 350° North 210 242 5,000 -900 Descending FlightAware ADS-B
12:57AM 51.4559 0.0009 341° North 208 239 5,000 -720 Level FlightAware ADS-B
12:57AM 51.4600 -0.0027 331° Northwest 205 236 4,900 -780 Descending FlightAware ADS-B
12:57AM 51.4622 -0.0057 319° Northwest 204 235 4,900  Level FlightAware ADS-B
12:57AM 51.4643 -0.0094 313° West 202 232 4,900 -900 Level FlightAware ADS-B
12:57AM 51.4662 -0.0140 303° West 199 229 4,800 -780 Descending FlightAware ADS-B
12:57AM 51.4680 -0.0190 300° West 196 226 4,800 -720 Level FlightAware ADS-B
12:57AM 51.4699 -0.0259 294° West 193 222 4,700 -600 Descending FlightAware ADS-B
12:57AM 51.4718 -0.0337 291° West 190 219 4,700 -360 Level FlightAware ADS-B
12:57AM 51.4753 -0.0480 291° West 187 215 4,600 -420 Descending FlightAware ADS-B
12:57AM 51.4763 -0.0532 287° West 188 216 4,600  Level FlightAware ADS-B
12:57AM 51.4770 -0.0580 283° West 188 216 4,600 -900 Level FlightAware ADS-B
12:57AM 51.4774 -0.0621 279° West 189 217 4,500 -900 Descending FlightAware ADS-B
12:57AM 51.4777 -0.0687 274° West 189 217 4,500  Level FlightAware ADS-B
12:58AM 51.4779 -0.0734 274° West 189 217 4,500 -840 Level FlightAware ADS-B
12:58AM 51.4781 -0.0894 271° West 189 217 4,300 -840 Descending FlightAware ADS-B
12:58AM 51.4782 -0.1061 271° West 190 219 4,200 -900 Descending FlightAware ADS-B
12:58AM 51.4782 -0.1276 270° West 188 216 3,900 -1,020 Descending FlightAware ADS-B
12:58AM 51.4782 -0.1498 270° West 188 216 3,700 -960 Descending FlightAware ADS-B
12:59AM 51.4782 -0.1710 270° West 188 216 3,400 -1,380 Descending FlightAware ADS-B
12:59AM 51.4782 -0.1923 270° West 188 216 3,000 -1,500 Descending FlightAware ADS-B
12:59AM 51.4783 -0.2113 270° West 188 216 2,700 -1,440 Descending FlightAware ADS-B
12:59AM 51.4782 -0.2342 270° West 188 216 2,300 -1,140 Descending FlightAware ADS-B
01:00AM 51.4782 -0.2563 270° West 184 212 2,100 -3,600 Descending FlightAware ADS-B
01:00AM 51.4780 -0.2811 270° West 178 205 200 -960 Descending FlightAware UK
01:01AM 51.4780 -0.3160 270° West 160 184 1,300 960 Climbing FlightAware
01:01AM 51.4780 -0.3401 270° West 170 196 1,000 -900 Descending FlightAware ADS-B
01:02AM 51.4780 -0.4020 270° West 145 167 200 -720 Descending FlightAware
01:02AM 51.4780 -0.4070 270° West 144 166 100 -300 Descending FlightAware
01:03AM 51.4780 -0.4270 270° West 145 167 -240 Descending FlightAware